Terminal Aerodrome Forecast
Issued by NWS

Home | Current Version | Previous Version | Text Only | Print | Product List | Glossary On
Versions: 1 2 3 4 5 6 7 8 9 10 11 12 13 14 15 16
000
FTUS43 KDTX 212320
TAFDET
TAF
KDET 212320Z 2200/2224 35014KT P6SM BKN020 OVC035
     FM220800 36006KT P6SM BKN035
     FM221200 35008KT P6SM BKN028
     FM222100 01006KT P6SM SKC=

USA.gov is the U.S. government's official web portal to all federal, state and local government web resources and services.